sensor_id;sensor_type;location;lat;lon;timestamp;pressure;altitude;pressure_sealevel;temperature;humidity
67803;BME280;54601;51.378;-1.342;2023-03-16T00:02:20;99577.37;;;17.46;32.16
67803;BME280;54601;51.378;-1.342;2023-03-16T00:04:46;99570.79;;;17.59;31.98
67803;BME280;54601;51.378;-1.342;2023-03-16T00:07:11;99572.32;;;17.64;31.95
67803;BME280;54601;51.378;-1.342;2023-03-16T00:09:37;99566.52;;;17.48;32.15
67803;BME280;54601;51.378;-1.342;2023-03-16T00:12:02;99564.11;;;17.58;32.04
67803;BME280;54601;51.378;-1.342;2023-03-16T00:14:26;99563.79;;;17.55;32.07
67803;BME280;54601;51.378;-1.342;2023-03-16T00:16:52;99562.68;;;17.32;32.30
67803;BME280;54601;51.378;-1.342;2023-03-16T00:19:17;99562.04;;;17.61;32.00
67803;BME280;54601;51.378;-1.342;2023-03-16T00:21:42;99566.61;;;17.65;31.98
67803;BME280;54601;51.378;-1.342;2023-03-16T00:24:07;99566.26;;;17.53;32.09
67803;BME280;54601;51.378;-1.342;2023-03-16T00:26:33;99562.24;;;17.61;31.99
67803;BME280;54601;51.378;-1.342;2023-03-16T00:28:58;99557.53;;;17.70;31.94
67803;BME280;54601;51.378;-1.342;2023-03-16T00:31:23;99553.10;;;17.69;31.93
67803;BME280;54601;51.378;-1.342;2023-03-16T00:33:48;99545.64;;;17.72;31.91
67803;BME280;54601;51.378;-1.342;2023-03-16T00:36:13;99533.49;;;17.81;31.79
67803;BME280;54601;51.378;-1.342;2023-03-16T00:38:40;99524.81;;;17.67;31.98
67803;BME280;54601;51.378;-1.342;2023-03-16T00:41:05;99535.19;;;17.66;32.01
67803;BME280;54601;51.378;-1.342;2023-03-16T00:43:29;99532.26;;;17.72;31.95
67803;BME280;54601;51.378;-1.342;2023-03-16T00:45:57;99537.71;;;17.88;31.74
67803;BME280;54601;51.378;-1.342;2023-03-16T00:48:19;99526.32;;;17.67;32.02
67803;BME280;54601;51.378;-1.342;2023-03-16T00:50:44;99517.66;;;17.84;31.82
67803;BME280;54601;51.378;-1.342;2023-03-16T00:53:10;99510.56;;;17.81;31.83
67803;BME280;54601;51.378;-1.342;2023-03-16T00:55:35;99512.49;;;17.87;31.79
67803;BME280;54601;51.378;-1.342;2023-03-16T00:58:00;99509.89;;;17.85;31.81
67803;BME280;54601;51.378;-1.342;2023-03-16T01:00:25;99510.02;;;18.38;31.77
67803;BME280;54601;51.378;-1.342;2023-03-16T01:02:50;99506.70;;;17.59;31.86
67803;BME280;54601;51.378;-1.342;2023-03-16T01:05:16;99508.40;;;17.61;31.83
67803;BME280;54601;51.378;-1.342;2023-03-16T01:07:41;99500.45;;;17.89;31.77
67803;BME280;54601;51.378;-1.342;2023-03-16T01:10:08;99505.77;;;17.97;31.70
67803;BME280;54601;51.378;-1.342;2023-03-16T01:12:31;99498.57;;;17.94;31.74
67803;BME280;54601;51.378;-1.342;2023-03-16T01:14:56;99485.50;;;17.66;31.79
67803;BME280;54601;51.378;-1.342;2023-03-16T01:17:22;99482.78;;;18.02;31.69
67803;BME280;54601;51.378;-1.342;2023-03-16T01:19:47;99480.91;;;18.00;31.69
67803;BME280;54601;51.378;-1.342;2023-03-16T01:22:12;99478.59;;;17.86;31.83
67803;BME280;54601;51.378;-1.342;2023-03-16T01:24:38;99478.78;;;18.32;31.68
67803;BME280;54601;51.378;-1.342;2023-03-16T01:27:03;99465.93;;;18.05;31.66
67803;BME280;54601;51.378;-1.342;2023-03-16T01:29:28;99467.36;;;18.01;31.69
67803;BME280;54601;51.378;-1.342;2023-03-16T01:31:52;99462.31;;;17.96;31.77
67803;BME280;54601;51.378;-1.342;2023-03-16T01:34:18;99452.53;;;17.98;31.75
67803;BME280;54601;51.378;-1.342;2023-03-16T01:36:43;99450.80;;;18.09;31.61
67803;BME280;54601;51.378;-1.342;2023-03-16T01:39:08;99445.69;;;17.86;31.87
67803;BME280;54601;51.378;-1.342;2023-03-16T01:41:33;99451.15;;;18.00;31.77
67803;BME280;54601;51.378;-1.342;2023-03-16T01:43:58;99448.36;;;17.99;31.77
67803;BME280;54601;51.378;-1.342;2023-03-16T01:46:25;99446.23;;;18.07;31.67
67803;BME280;54601;51.378;-1.342;2023-03-16T01:48:57;99445.85;;;18.24;31.47
67803;BME280;54601;51.378;-1.342;2023-03-16T01:51:16;99447.19;;;18.12;31.62
67803;BME280;54601;51.378;-1.342;2023-03-16T01:53:40;99443.37;;;18.05;31.69
67803;BME280;54601;51.378;-1.342;2023-03-16T01:56:07;99443.90;;;18.26;31.47
67803;BME280;54601;51.378;-1.342;2023-03-16T01:58:30;99442.28;;;18.27;31.45
67803;BME280;54601;51.378;-1.342;2023-03-16T02:00:54;99439.46;;;18.30;31.41
67803;BME280;54601;51.378;-1.342;2023-03-16T02:03:20;99433.05;;;18.30;31.41
67803;BME280;54601;51.378;-1.342;2023-03-16T02:05:49;99430.33;;;18.36;31.35
67803;BME280;54601;51.378;-1.342;2023-03-16T02:08:10;99427.05;;;18.45;31.26
67803;BME280;54601;51.378;-1.342;2023-03-16T02:10:36;99427.66;;;18.29;31.43
67803;BME280;54601;51.378;-1.342;2023-03-16T02:13:00;99424.44;;;18.30;31.45
67803;BME280;54601;51.378;-1.342;2023-03-16T02:15:25;99423.28;;;18.30;31.44
67803;BME280;54601;51.378;-1.342;2023-03-16T02:17:50;99428.36;;;18.27;31.48
67803;BME280;54601;51.378;-1.342;2023-03-16T02:20:26;99417.38;;;18.43;31.31
67803;BME280;54601;51.378;-1.342;2023-03-16T02:22:44;99411.80;;;18.35;31.40
67803;BME280;54601;51.378;-1.342;2023-03-16T02:25:07;99407.04;;;18.02;31.52
67803;BME280;54601;51.378;-1.342;2023-03-16T02:27:38;99403.96;;;18.34;31.43
67803;BME280;54601;51.378;-1.342;2023-03-16T02:30:04;99393.34;;;18.34;31.40
67803;BME280;54601;51.378;-1.342;2023-03-16T02:32:23;99387.38;;;18.45;31.30
67803;BME280;54601;51.378;-1.342;2023-03-16T02:34:47;99394.87;;;18.46;31.29
67803;BME280;54601;51.378;-1.342;2023-03-16T02:37:12;99392.54;;;18.16;31.36
67803;BME280;54601;51.378;-1.342;2023-03-16T02:39:37;99392.78;;;18.56;31.17
67803;BME280;54601;51.378;-1.342;2023-03-16T02:42:03;99390.64;;;18.34;31.40
67803;BME280;54601;51.378;-1.342;2023-03-16T02:44:31;99387.82;;;18.36;31.40
67803;BME280;54601;51.378;-1.342;2023-03-16T02:46:55;99389.38;;;18.24;31.30
67803;BME280;54601;51.378;-1.342;2023-03-16T02:49:21;99385.97;;;18.38;31.39
67803;BME280;54601;51.378;-1.342;2023-03-16T02:51:44;99378.28;;;18.46;31.30
67803;BME280;54601;51.378;-1.342;2023-03-16T02:54:08;99372.63;;;18.20;31.53
67803;BME280;54601;51.378;-1.342;2023-03-16T02:56:34;99370.00;;;18.21;31.60
67803;BME280;54601;51.378;-1.342;2023-03-16T02:58:59;99363.62;;;18.22;31.59
67803;BME280;54601;51.378;-1.342;2023-03-16T03:01:24;99369.91;;;18.29;31.51
67803;BME280;54601;51.378;-1.342;2023-03-16T03:03:49;99364.82;;;18.35;31.45
67803;BME280;54601;51.378;-1.342;2023-03-16T03:06:14;99365.64;;;18.44;31.33
67803;BME280;54601;51.378;-1.342;2023-03-16T03:08:39;99361.21;;;18.45;31.32
67803;BME280;54601;51.378;-1.342;2023-03-16T03:11:05;99362.06;;;18.03;31.26
67803;BME280;54601;51.378;-1.342;2023-03-16T03:13:30;99367.68;;;18.30;31.49
67803;BME280;54601;51.378;-1.342;2023-03-16T03:15:55;99365.08;;;18.42;31.37
67803;BME280;54601;51.378;-1.342;2023-03-16T03:18:20;99365.76;;;18.48;31.32
67803;BME280;54601;51.378;-1.342;2023-03-16T03:20:45;99364.42;;;18.35;31.45
67803;BME280;54601;51.378;-1.342;2023-03-16T03:23:10;99370.16;;;18.26;31.32
67803;BME280;54601;51.378;-1.342;2023-03-16T03:25:36;99375.81;;;17.90;31.41
67803;BME280;54601;51.378;-1.342;2023-03-16T03:28:02;99379.25;;;18.49;31.31
67803;BME280;54601;51.378;-1.342;2023-03-16T03:30:27;99382.00;;;18.40;31.41
67803;BME280;54601;51.378;-1.342;2023-03-16T03:32:51;99380.45;;;18.25;31.32
67803;BME280;54601;51.378;-1.342;2023-03-16T03:35:17;99375.32;;;18.58;31.21
67803;BME280;54601;51.378;-1.342;2023-03-16T03:37:42;99378.47;;;18.40;31.42
67803;BME280;54601;51.378;-1.342;2023-03-16T03:40:09;99375.61;;;18.38;31.44
67803;BME280;54601;51.378;-1.342;2023-03-16T03:42:32;99380.49;;;18.51;31.30
67803;BME280;54601;51.378;-1.342;2023-03-16T03:44:57;99381.29;;;18.46;31.35
67803;BME280;54601;51.378;-1.342;2023-03-16T03:47:23;99377.66;;;18.33;31.49
67803;BME280;54601;51.378;-1.342;2023-03-16T03:49:48;99377.53;;;18.13;31.45
67803;BME280;54601;51.378;-1.342;2023-03-16T03:52:13;99376.83;;;18.37;31.45
67803;BME280;54601;51.378;-1.342;2023-03-16T03:54:38;99374.67;;;18.32;31.26
67803;BME280;54601;51.378;-1.342;2023-03-16T03:57:04;99373.92;;;18.64;31.15
67803;BME280;54601;51.378;-1.342;2023-03-16T03:59:29;99372.57;;;18.40;31.41
67803;BME280;54601;51.378;-1.342;2023-03-16T04:01:54;99371.43;;;18.32;31.49
67803;BME280;54601;51.378;-1.342;2023-03-16T04:04:19;99366.40;;;18.40;31.41
67803;BME280;54601;51.378;-1.342;2023-03-16T04:06:44;99364.42;;;18.17;31.42
67803;BME280;54601;51.378;-1.342;2023-03-16T04:09:09;99344.74;;;18.46;31.33
67803;BME280;54601;51.378;-1.342;2023-03-16T04:11:34;99329.59;;;18.50;31.28
67803;BME280;54601;51.378;-1.342;2023-03-16T04:13:59;99327.21;;;18.46;31.32
67803;BME280;54601;51.378;-1.342;2023-03-16T04:16:25;99330.66;;;18.49;31.31
67803;BME280;54601;51.378;-1.342;2023-03-16T04:18:50;99338.17;;;18.07;31.20
67803;BME280;54601;51.378;-1.342;2023-03-16T04:21:16;99345.16;;;18.03;31.56
67803;BME280;54601;51.378;-1.342;2023-03-16T04:23:40;99338.05;;;18.41;31.39
67803;BME280;54601;51.378;-1.342;2023-03-16T04:26:05;99333.88;;;18.48;31.29
67803;BME280;54601;51.378;-1.342;2023-03-16T04:28:31;99328.84;;;18.61;31.16
67803;BME280;54601;51.378;-1.342;2023-03-16T04:31:00;99328.99;;;18.27;31.28
67803;BME280;54601;51.378;-1.342;2023-03-16T04:33:21;99332.13;;;18.37;31.43
67803;BME280;54601;51.378;-1.342;2023-03-16T04:35:46;99326.74;;;18.33;31.45
67803;BME280;54601;51.378;-1.342;2023-03-16T04:38:11;99324.54;;;18.41;31.38
67803;BME280;54601;51.378;-1.342;2023-03-16T04:40:36;99319.36;;;18.42;31.36
67803;BME280;54601;51.378;-1.342;2023-03-16T04:43:02;99325.18;;;18.43;31.35
67803;BME280;54601;51.378;-1.342;2023-03-16T04:45:27;99320.51;;;18.26;31.31
67803;BME280;54601;51.378;-1.342;2023-03-16T04:47:52;99326.27;;;18.48;31.30
67803;BME280;54601;51.378;-1.342;2023-03-16T04:50:17;99327.93;;;18.07;31.49
67803;BME280;54601;51.378;-1.342;2023-03-16T04:52:42;99326.84;;;18.11;31.46
67803;BME280;54601;51.378;-1.342;2023-03-16T04:55:08;99322.02;;;18.50;31.28
67803;BME280;54601;51.378;-1.342;2023-03-16T04:57:33;99315.11;;;18.37;31.40
67803;BME280;54601;51.378;-1.342;2023-03-16T04:59:58;99310.32;;;18.30;31.49
67803;BME280;54601;51.378;-1.342;2023-03-16T05:02:23;99316.37;;;18.25;31.54
67803;BME280;54601;51.378;-1.342;2023-03-16T05:04:48;99312.51;;;18.29;31.25
67803;BME280;54601;51.378;-1.342;2023-03-16T05:07:14;99306.35;;;18.42;31.34
67803;BME280;54601;51.378;-1.342;2023-03-16T05:09:39;99309.31;;;18.42;31.36
67803;BME280;54601;51.378;-1.342;2023-03-16T05:12:04;99309.20;;;18.33;31.43
67803;BME280;54601;51.378;-1.342;2023-03-16T05:14:29;99310.90;;;18.28;31.50
67803;BME280;54601;51.378;-1.342;2023-03-16T05:16:54;99309.87;;;18.32;31.46
67803;BME280;54601;51.378;-1.342;2023-03-16T05:19:19;99313.84;;;18.19;31.62
67803;BME280;54601;51.378;-1.342;2023-03-16T05:21:45;99304.47;;;18.11;31.43
67803;BME280;54601;51.378;-1.342;2023-03-16T05:24:10;99300.38;;;18.46;31.29
67803;BME280;54601;51.378;-1.342;2023-03-16T05:26:35;99303.03;;;18.31;31.44
67803;BME280;54601;51.378;-1.342;2023-03-16T05:29:00;99305.85;;;18.33;31.44
67803;BME280;54601;51.378;-1.342;2023-03-16T05:31:25;99298.29;;;18.31;31.43
67803;BME280;54601;51.378;-1.342;2023-03-16T05:33:51;99299.30;;;18.22;31.31
67803;BME280;54601;51.378;-1.342;2023-03-16T05:36:16;99298.16;;;18.31;31.43
67803;BME280;54601;51.378;-1.342;2023-03-16T05:38:41;99296.70;;;18.38;31.36
67803;BME280;54601;51.378;-1.342;2023-03-16T05:41:06;99295.72;;;18.23;31.29
67803;BME280;54601;51.378;-1.342;2023-03-16T05:43:31;99294.96;;;18.09;31.39
67803;BME280;54601;51.378;-1.342;2023-03-16T05:45:57;99297.56;;;18.57;31.14
67803;BME280;54601;51.378;-1.342;2023-03-16T05:48:22;99300.64;;;18.55;31.15
67803;BME280;54601;51.378;-1.342;2023-03-16T05:50:47;99301.96;;;18.49;31.24
67803;BME280;54601;51.378;-1.342;2023-03-16T05:53:12;99300.58;;;18.42;31.29
67803;BME280;54601;51.378;-1.342;2023-03-16T05:55:37;99300.56;;;18.46;31.23
67803;BME280;54601;51.378;-1.342;2023-03-16T05:58:02;99301.41;;;18.52;31.17
67803;BME280;54601;51.378;-1.342;2023-03-16T06:00:28;99303.05;;;18.40;31.29
67803;BME280;54601;51.378;-1.342;2023-03-16T06:02:53;99303.13;;;18.48;30.94
67803;BME280;54601;51.378;-1.342;2023-03-16T06:05:20;99305.68;;;18.52;31.17
67803;BME280;54601;51.378;-1.342;2023-03-16T06:07:43;99305.74;;;18.64;31.03
67803;BME280;54601;51.378;-1.342;2023-03-16T06:10:10;99306.18;;;18.54;31.13
67803;BME280;54601;51.378;-1.342;2023-03-16T06:12:34;99310.83;;;18.46;31.23
67803;BME280;54601;51.378;-1.342;2023-03-16T06:14:59;99318.08;;;18.35;31.09
67803;BME280;54601;51.378;-1.342;2023-03-16T06:17:24;99318.71;;;18.99;30.61
67803;BME280;54601;51.378;-1.342;2023-03-16T06:19:49;99322.52;;;18.54;30.51
67803;BME280;54601;51.378;-1.342;2023-03-16T06:22:14;99315.75;;;19.19;30.35
67803;BME280;54601;51.378;-1.342;2023-03-16T06:24:40;99313.60;;;18.98;30.31
67803;BME280;54601;51.378;-1.342;2023-03-16T06:27:05;99312.76;;;18.90;30.37
67803;BME280;54601;51.378;-1.342;2023-03-16T06:29:30;99309.11;;;18.97;30.31
67803;BME280;54601;51.378;-1.342;2023-03-16T06:31:55;99300.36;;;19.17;30.32
67803;BME280;54601;51.378;-1.342;2023-03-16T06:34:20;99290.43;;;19.16;30.31
67803;BME280;54601;51.378;-1.342;2023-03-16T06:36:45;99291.37;;;19.09;30.39
67803;BME280;54601;51.378;-1.342;2023-03-16T06:39:10;99278.93;;;19.01;30.23
67803;BME280;54601;51.378;-1.342;2023-03-16T06:41:36;99274.15;;;19.22;30.21
67803;BME280;54601;51.378;-1.342;2023-03-16T06:44:01;99282.37;;;19.13;30.32
67803;BME280;54601;51.378;-1.342;2023-03-16T06:46:26;99277.19;;;19.14;30.31
67803;BME280;54601;51.378;-1.342;2023-03-16T06:48:51;99284.19;;;18.72;30.89
67803;BME280;54601;51.378;-1.342;2023-03-16T06:51:16;99286.55;;;18.66;30.65
67803;BME280;54601;51.378;-1.342;2023-03-16T06:53:42;99274.38;;;19.02;30.48
67803;BME280;54601;51.378;-1.342;2023-03-16T06:56:07;99272.31;;;19.13;30.36
67803;BME280;54601;51.378;-1.342;2023-03-16T06:58:32;99258.20;;;18.93;30.30
67803;BME280;54601;51.378;-1.342;2023-03-16T07:01:00;99258.41;;;19.16;30.31
67803;BME280;54601;51.378;-1.342;2023-03-16T07:03:22;99262.24;;;19.08;30.37
67803;BME280;54601;51.378;-1.342;2023-03-16T07:05:48;99263.01;;;19.13;30.30
67803;BME280;54601;51.378;-1.342;2023-03-16T07:08:13;99250.85;;;19.15;30.28
67803;BME280;54601;51.378;-1.342;2023-03-16T07:10:38;99263.13;;;19.16;30.25
67803;BME280;54601;51.378;-1.342;2023-03-16T07:13:03;99255.92;;;18.99;30.18
67803;BME280;54601;51.378;-1.342;2023-03-16T07:15:28;99266.06;;;19.13;30.26
67803;BME280;54601;51.378;-1.342;2023-03-16T07:17:53;99266.86;;;19.21;30.16
67803;BME280;54601;51.378;-1.342;2023-03-16T07:20:19;99267.24;;;18.96;30.19
67803;BME280;54601;51.378;-1.342;2023-03-16T07:22:44;99271.52;;;18.86;30.30
67803;BME280;54601;51.378;-1.342;2023-03-16T07:25:10;99274.70;;;19.12;30.25
67803;BME280;54601;51.378;-1.342;2023-03-16T07:27:34;99272.97;;;19.05;30.33
67803;BME280;54601;51.378;-1.342;2023-03-16T07:29:59;99267.46;;;19.08;30.30
67803;BME280;54601;51.378;-1.342;2023-03-16T07:32:25;99276.96;;;19.10;30.29
67803;BME280;54601;51.378;-1.342;2023-03-16T07:34:50;99283.54;;;18.94;30.19
67803;BME280;54601;51.378;-1.342;2023-03-16T07:37:15;99284.35;;;19.10;30.26
67803;BME280;54601;51.378;-1.342;2023-03-16T07:39:41;99291.52;;;19.03;30.10
67803;BME280;54601;51.378;-1.342;2023-03-16T07:42:06;99287.98;;;18.95;30.17
67803;BME280;54601;51.378;-1.342;2023-03-16T07:44:31;99293.24;;;19.35;30.01
67803;BME280;54601;51.378;-1.342;2023-03-16T07:46:56;99297.81;;;19.36;29.96
67803;BME280;54601;51.378;-1.342;2023-03-16T07:49:21;99296.39;;;19.39;29.94
67803;BME280;54601;51.378;-1.342;2023-03-16T07:51:46;99293.56;;;19.44;29.88
67803;BME280;54601;51.378;-1.342;2023-03-16T07:54:11;99301.10;;;19.11;29.99
67803;BME280;54601;51.378;-1.342;2023-03-16T07:56:36;99305.12;;;19.32;29.99
67803;BME280;54601;51.378;-1.342;2023-03-16T07:59:02;99305.52;;;19.20;30.11
67803;BME280;54601;51.378;-1.342;2023-03-16T08:01:27;99303.59;;;18.84;30.26
67803;BME280;54601;51.378;-1.342;2023-03-16T08:03:52;99302.64;;;19.15;30.17
67803;BME280;54601;51.378;-1.342;2023-03-16T08:06:17;99305.58;;;19.07;30.26
67803;BME280;54601;51.378;-1.342;2023-03-16T08:08:42;99304.13;;;19.10;30.21
67803;BME280;54601;51.378;-1.342;2023-03-16T08:11:08;99307.44;;;19.05;30.28
67803;BME280;54601;51.378;-1.342;2023-03-16T08:13:33;99306.16;;;19.11;30.21
67803;BME280;54601;51.378;-1.342;2023-03-16T08:15:58;99300.97;;;19.05;30.26
67803;BME280;54601;51.378;-1.342;2023-03-16T08:18:24;99306.76;;;19.12;30.17
67803;BME280;54601;51.378;-1.342;2023-03-16T08:20:48;99297.84;;;18.97;30.11
67803;BME280;54601;51.378;-1.342;2023-03-16T08:23:14;99296.63;;;19.07;30.23
67803;BME280;54601;51.378;-1.342;2023-03-16T08:25:39;99301.01;;;19.12;30.18
67803;BME280;54601;51.378;-1.342;2023-03-16T08:28:04;99302.28;;;19.08;30.23
67803;BME280;54601;51.378;-1.342;2023-03-16T08:30:29;99300.08;;;19.00;30.30
67803;BME280;54601;51.378;-1.342;2023-03-16T08:32:54;99302.34;;;19.04;30.27
67803;BME280;54601;51.378;-1.342;2023-03-16T08:35:20;99294.58;;;19.15;30.14
67803;BME280;54601;51.378;-1.342;2023-03-16T08:37:45;99290.71;;;19.18;30.10
67803;BME280;54601;51.378;-1.342;2023-03-16T08:40:11;99293.82;;;19.09;30.19
67803;BME280;54601;51.378;-1.342;2023-03-16T08:42:36;99297.62;;;18.89;30.17
67803;BME280;54601;51.378;-1.342;2023-03-16T08:45:00;99291.75;;;19.18;30.08
67803;BME280;54601;51.378;-1.342;2023-03-16T08:47:26;99288.98;;;19.19;30.08
67803;BME280;54601;51.378;-1.342;2023-03-16T08:49:51;99287.39;;;19.00;30.26
67803;BME280;54601;51.378;-1.342;2023-03-16T08:52:16;99282.89;;;18.89;30.14
67803;BME280;54601;51.378;-1.342;2023-03-16T08:54:41;99284.43;;;18.90;30.13
67803;BME280;54601;51.378;-1.342;2023-03-16T08:57:07;99288.49;;;18.83;30.19
67803;BME280;54601;51.378;-1.342;2023-03-16T08:59:32;99294.40;;;19.06;30.19
67803;BME280;54601;51.378;-1.342;2023-03-16T09:01:57;99292.41;;;19.00;30.24
67803;BME280;54601;51.378;-1.342;2023-03-16T09:04:22;99292.75;;;19.10;30.15
67803;BME280;54601;51.378;-1.342;2023-03-16T09:06:47;99286.20;;;18.97;30.26
67803;BME280;54601;51.378;-1.342;2023-03-16T09:09:13;99286.22;;;18.69;30.33
67803;BME280;54601;51.378;-1.342;2023-03-16T09:11:38;99284.76;;;19.00;30.25
67803;BME280;54601;51.378;-1.342;2023-03-16T09:14:03;99287.99;;;19.13;30.09
67803;BME280;54601;51.378;-1.342;2023-03-16T09:16:28;99292.16;;;19.15;30.04
67803;BME280;54601;51.378;-1.342;2023-03-16T09:18:54;99292.48;;;19.03;30.18
67803;BME280;54601;51.378;-1.342;2023-03-16T09:21:19;99290.89;;;18.99;30.25
67803;BME280;54601;51.378;-1.342;2023-03-16T09:23:44;99289.36;;;18.96;30.27
67803;BME280;54601;51.378;-1.342;2023-03-16T09:26:10;99290.73;;;18.99;30.22
67803;BME280;54601;51.378;-1.342;2023-03-16T09:28:35;99296.98;;;18.97;30.25
67803;BME280;54601;51.378;-1.342;2023-03-16T09:31:00;99298.87;;;18.89;30.10
67803;BME280;54601;51.378;-1.342;2023-03-16T09:33:26;99296.48;;;18.98;30.22
67803;BME280;54601;51.378;-1.342;2023-03-16T09:35:50;99291.73;;;18.71;30.29
67803;BME280;54601;51.378;-1.342;2023-03-16T09:38:15;99289.53;;;19.07;30.12
67803;BME280;54601;51.378;-1.342;2023-03-16T09:40:40;99286.68;;;19.01;30.21
67803;BME280;54601;51.378;-1.342;2023-03-16T09:43:17;99281.85;;;18.90;30.34
67803;BME280;54601;51.378;-1.342;2023-03-16T09:45:34;99274.38;;;19.12;30.06
67803;BME280;54601;51.378;-1.342;2023-03-16T09:47:57;99272.38;;;19.05;30.14
67803;BME280;54601;51.378;-1.342;2023-03-16T09:50:25;99273.95;;;19.08;30.11
67803;BME280;54601;51.378;-1.342;2023-03-16T09:52:52;99272.99;;;18.73;30.25
67803;BME280;54601;51.378;-1.342;2023-03-16T09:55:20;99275.54;;;18.97;30.23
67803;BME280;54601;51.378;-1.342;2023-03-16T09:57:40;99276.77;;;19.09;30.09
67803;BME280;54601;51.378;-1.342;2023-03-16T10:02:41;99264.40;;;19.01;30.17
67803;BME280;54601;51.378;-1.342;2023-03-16T10:04:58;99261.15;;;19.06;30.10
67803;BME280;54601;51.378;-1.342;2023-03-16T10:07:26;99260.00;;;18.76;30.22
67803;BME280;54601;51.378;-1.342;2023-03-16T10:09:48;99257.94;;;19.02;30.18
67803;BME280;54601;51.378;-1.342;2023-03-16T10:12:08;99258.96;;;18.79;30.42
67803;BME280;54601;51.378;-1.342;2023-03-16T10:14:38;99256.61;;;18.72;30.27
67803;BME280;54601;51.378;-1.342;2023-03-16T10:17:00;99253.91;;;18.85;30.13
67803;BME280;54601;51.378;-1.342;2023-03-16T10:19:30;99234.75;;;19.00;30.19
67803;BME280;54601;51.378;-1.342;2023-03-16T10:21:51;99235.82;;;18.90;30.30
67803;BME280;54601;51.378;-1.342;2023-03-16T10:24:22;99227.29;;;18.74;30.52
67803;BME280;54601;51.378;-1.342;2023-03-16T10:26:41;99216.16;;;18.90;30.56
67803;BME280;54601;51.378;-1.342;2023-03-16T10:29:09;99213.06;;;18.50;30.81
67803;BME280;54601;51.378;-1.342;2023-03-16T10:31:29;99208.48;;;18.95;30.52
67803;BME280;54601;51.378;-1.342;2023-03-16T10:34:01;99207.48;;;18.86;30.63
67803;BME280;54601;51.378;-1.342;2023-03-16T10:36:27;99215.46;;;18.88;30.65
67803;BME280;54601;51.378;-1.342;2023-03-16T10:38:47;99219.09;;;18.84;30.69
67803;BME280;54601;51.378;-1.342;2023-03-16T10:43:35;99219.13;;;18.84;30.45
67803;BME280;54601;51.378;-1.342;2023-03-16T10:46:01;99217.22;;;19.02;30.55
67803;BME280;54601;51.378;-1.342;2023-03-16T10:48:25;99213.62;;;19.04;30.53
67803;BME280;54601;51.378;-1.342;2023-03-16T10:50:54;99218.40;;;18.90;30.44
67803;BME280;54601;51.378;-1.342;2023-03-16T10:53:19;99219.31;;;18.89;30.44
67803;BME280;54601;51.378;-1.342;2023-03-16T10:55:42;99224.72;;;18.87;30.54
67803;BME280;54601;51.378;-1.342;2023-03-16T10:58:08;99222.46;;;19.22;30.41
67803;BME280;54601;51.378;-1.342;2023-03-16T11:00:35;99220.50;;;19.27;30.40
67803;BME280;54601;51.378;-1.342;2023-03-16T11:02:58;99221.86;;;19.44;30.28
67803;BME280;54601;51.378;-1.342;2023-03-16T11:05:28;99216.46;;;19.45;30.26
67803;BME280;54601;51.378;-1.342;2023-03-16T11:07:47;99215.07;;;19.26;30.09
67803;BME280;54601;51.378;-1.342;2023-03-16T11:12:37;99196.81;;;19.09;30.49
67803;BME280;54601;51.378;-1.342;2023-03-16T11:15:03;99199.70;;;19.37;30.39
67803;BME280;54601;51.378;-1.342;2023-03-16T11:17:33;99197.52;;;19.55;30.17
67803;BME280;54601;51.378;-1.342;2023-03-16T11:19:53;99196.95;;;19.51;30.26
67803;BME280;54601;51.378;-1.342;2023-03-16T11:22:20;99192.43;;;19.20;30.35
67803;BME280;54601;51.378;-1.342;2023-03-16T11:24:45;99194.95;;;19.15;30.43
67803;BME280;54601;51.378;-1.342;2023-03-16T11:27:16;99188.27;;;19.51;30.28
67803;BME280;54601;51.378;-1.342;2023-03-16T11:29:42;99183.84;;;19.27;30.39
67803;BME280;54601;51.378;-1.342;2023-03-16T11:32:02;99187.96;;;19.34;30.27
67803;BME280;54601;51.378;-1.342;2023-03-16T11:34:27;99196.77;;;19.34;30.20
67803;BME280;54601;51.378;-1.342;2023-03-16T11:36:51;99190.37;;;19.00;30.27
67803;BME280;54601;51.378;-1.342;2023-03-16T11:39:22;99185.42;;;19.13;30.43
67803;BME280;54601;51.378;-1.342;2023-03-16T11:41:48;99177.81;;;19.16;30.39
67803;BME280;54601;51.378;-1.342;2023-03-16T11:44:09;99177.92;;;19.41;30.42
67803;BME280;54601;51.378;-1.342;2023-03-16T11:46:30;99187.21;;;19.17;30.42
67803;BME280;54601;51.378;-1.342;2023-03-16T11:49:05;99182.34;;;19.05;30.51
67803;BME280;54601;51.378;-1.342;2023-03-16T11:51:30;99175.21;;;19.31;30.45
67803;BME280;54601;51.378;-1.342;2023-03-16T11:53:51;99171.44;;;19.17;30.41
67803;BME280;54601;51.378;-1.342;2023-03-16T11:56:15;99174.84;;;18.91;30.37
67803;BME280;54601;51.378;-1.342;2023-03-16T11:58:45;99177.42;;;19.27;30.49
67803;BME280;54601;51.378;-1.342;2023-03-16T12:01:06;99179.94;;;19.05;30.52
67803;BME280;54601;51.378;-1.342;2023-03-16T12:03:34;99182.63;;;18.97;30.39
67803;BME280;54601;51.378;-1.342;2023-03-16T12:05:55;99175.83;;;19.13;30.41
67803;BME280;54601;51.378;-1.342;2023-03-16T12:08:28;99171.50;;;18.88;30.72
67803;BME280;54601;51.378;-1.342;2023-03-16T12:10:42;99165.22;;;19.14;30.41
67803;BME280;54601;51.378;-1.342;2023-03-16T12:13:16;99156.51;;;19.03;30.55
67803;BME280;54601;51.378;-1.342;2023-03-16T12:15:33;99158.47;;;19.12;30.45
67803;BME280;54601;51.378;-1.342;2023-03-16T12:17:58;99153.56;;;19.17;30.68
67803;BME280;54601;51.378;-1.342;2023-03-16T12:20:23;99140.09;;;19.27;30.53
67803;BME280;54601;51.378;-1.342;2023-03-16T12:22:47;99130.45;;;19.24;30.58
67803;BME280;54601;51.378;-1.342;2023-03-16T12:25:16;99129.05;;;18.98;30.65
67803;BME280;54601;51.378;-1.342;2023-03-16T12:27:37;99133.42;;;19.36;30.47
67803;BME280;54601;51.378;-1.342;2023-03-16T12:30:11;99131.41;;;19.30;30.55
67803;BME280;54601;51.378;-1.342;2023-03-16T12:32:34;99129.80;;;19.12;30.50
67803;BME280;54601;51.378;-1.342;2023-03-16T12:34:52;99133.28;;;19.03;30.57
67803;BME280;54601;51.378;-1.342;2023-03-16T12:37:25;99130.62;;;18.98;30.64
67803;BME280;54601;51.378;-1.342;2023-03-16T12:39:53;99131.93;;;18.74;30.58
67803;BME280;54601;51.378;-1.342;2023-03-16T12:42:19;99128.43;;;19.01;30.57
67803;BME280;54601;51.378;-1.342;2023-03-16T12:44:37;99132.41;;;19.28;30.52
67803;BME280;54601;51.378;-1.342;2023-03-16T12:46:59;99131.06;;;19.07;30.53